Time;durP1;ratioP1;P1;durP2;ratioP2;P2;SDS_P1;SDS_P2;PMS_P1;PMS_P2;Temp;Humidity;BMP_temperature;BMP_pressure;BME280_temperature;BME280_humidity;BME280_pressure;Samples;Min_cycle;Max_cycle;Signal;HPM_P1;HPM_P2
2021/07/31 00:02:23;;;;;;;5.63;0.98;;;17.00;75.40;;;;;;5020834;28;20030;-84
2021/07/31 00:04:50;;;;;;;2.85;0.77;;;17.10;75.80;;;;;;5008301;28;20030;-83
2021/07/31 00:07:16;;;;;;;3.35;0.93;;;17.10;75.50;;;;;;4995200;28;20112;-82
2021/07/31 00:09:41;;;;;;;4.60;1.33;;;17.00;76.10;;;;;;4997818;28;20034;-82
2021/07/31 00:12:07;;;;;;;5.57;1.10;;;16.90;75.90;;;;;;5006010;28;20044;-84
2021/07/31 00:14:32;;;;;;;6.47;0.80;;;17.00;75.90;;;;;;5007034;28;20045;-83
2021/07/31 00:16:58;;;;;;;2.53;1.13;;;17.10;75.80;;;;;;4988591;28;20044;-82
2021/07/31 00:19:24;;;;;;;1.15;0.50;;;17.00;75.70;;;;;;5009021;28;20038;-82
2021/07/31 00:21:49;;;;;;;4.07;1.15;;;17.00;75.60;;;;;;5003586;28;20033;-83
2021/07/31 00:24:15;;;;;;;1.65;0.73;;;17.00;75.80;;;;;;4976857;28;20029;-83
2021/07/31 00:26:40;;;;;;;2.88;0.90;;;17.00;75.90;;;;;;4996858;28;20037;-82
2021/07/31 00:29:06;;;;;;;3.30;0.85;;;16.90;76.00;;;;;;4994736;28;20042;-82
2021/07/31 00:31:31;;;;;;;3.40;1.00;;;16.90;76.40;;;;;;4997863;28;20038;-81
2021/07/31 00:33:57;;;;;;;10.20;1.38;;;16.90;76.30;;;;;;5015840;28;20039;-84
2021/07/31 00:36:24;;;;;;;3.00;0.47;;;16.90;76.50;;;;;;5022352;28;20405;-82
2021/07/31 00:38:49;;;;;;;4.22;1.30;;;16.90;76.50;;;;;;4997942;28;20049;-83
2021/07/31 00:41:15;;;;;;;1.90;0.85;;;16.90;76.30;;;;;;5009749;28;20034;-83
2021/07/31 00:43:40;;;;;;;1.48;0.77;;;16.90;76.60;;;;;;4998079;28;20041;-83
2021/07/31 00:46:06;;;;;;;4.68;1.00;;;16.90;76.50;;;;;;4993604;28;20404;-82
2021/07/31 00:48:32;;;;;;;5.95;0.88;;;17.00;76.60;;;;;;4993348;28;20569;-82
2021/07/31 00:50:57;;;;;;;7.55;1.17;;;17.00;76.50;;;;;;5002497;28;20032;-83
2021/07/31 00:53:23;;;;;;;5.15;0.80;;;17.00;76.40;;;;;;5020394;28;20040;-82
2021/07/31 00:55:48;;;;;;;2.20;0.75;;;17.00;76.40;;;;;;4996283;28;20032;-83
2021/07/31 00:58:14;;;;;;;2.75;0.85;;;17.00;76.60;;;;;;5010544;28;20021;-83
2021/07/31 01:00:39;;;;;;;1.50;0.60;;;17.00;76.60;;;;;;4998098;28;20037;-82
2021/07/31 01:03:05;;;;;;;3.72;0.93;;;16.90;76.70;;;;;;4995471;28;20022;-82
2021/07/31 01:05:30;;;;;;;3.42;0.80;;;17.10;77.10;;;;;;4991316;28;20450;-82
2021/07/31 01:07:56;;;;;;;4.85;1.02;;;17.00;76.80;;;;;;4996921;28;20029;-84
2021/07/31 01:10:21;;;;;;;0.77;0.57;;;16.90;76.70;;;;;;4996565;28;20498;-81
2021/07/31 01:12:48;;;;;;;2.67;1.02;;;17.10;76.90;;;;;;5006621;28;20079;-83
2021/07/31 01:15:15;;;;;;;3.42;0.98;;;17.00;77.00;;;;;;4998125;28;20072;-82
2021/07/31 01:17:41;;;;;;;2.33;0.77;;;17.00;76.90;;;;;;4991662;28;20388;-82
2021/07/31 01:20:07;;;;;;;4.47;1.08;;;17.00;77.10;;;;;;5026345;28;20041;-82
2021/07/31 01:22:33;;;;;;;3.63;1.02;;;17.10;77.00;;;;;;5014550;28;20034;-83
2021/07/31 01:25:00;;;;;;;1.95;0.60;;;17.10;77.10;;;;;;5007363;28;20104;-83
2021/07/31 01:27:26;;;;;;;8.02;0.82;;;17.10;77.20;;;;;;5021819;28;20034;-82
2021/07/31 01:29:51;;;;;;;1.83;0.90;;;17.10;77.10;;;;;;4993944;28;20088;-82
2021/07/31 01:32:17;;;;;;;4.00;0.77;;;17.10;77.20;;;;;;4981157;28;20033;-82
2021/07/31 01:34:42;;;;;;;3.55;0.90;;;17.10;77.20;;;;;;5013259;28;20037;-84
2021/07/31 01:37:08;;;;;;;5.63;1.05;;;17.10;78.10;;;;;;5005904;28;20074;-83
2021/07/31 01:39:33;;;;;;;5.78;0.80;;;17.10;77.40;;;;;;5005735;28;20125;-82
2021/07/31 01:41:59;;;;;;;5.35;1.15;;;17.10;77.60;;;;;;5005984;28;20030;-83
2021/07/31 01:44:25;;;;;;;3.53;1.27;;;17.10;77.70;;;;;;5028353;28;20022;-83
2021/07/31 01:46:50;;;;;;;2.88;1.00;;;17.10;77.60;;;;;;5003009;28;20037;-82
2021/07/31 01:49:16;;;;;;;6.97;1.00;;;17.10;77.80;;;;;;4995417;28;20034;-82
2021/07/31 01:51:41;;;;;;;6.15;1.23;;;17.10;78.00;;;;;;5002174;28;20483;-83
2021/07/31 01:54:07;;;;;;;0.45;0.40;;;17.00;77.90;;;;;;5000617;28;20489;-82
2021/07/31 01:56:32;;;;;;;5.38;1.15;;;17.00;78.10;;;;;;5015446;28;20022;-82
2021/07/31 01:58:58;;;;;;;4.70;1.00;;;17.10;78.20;;;;;;4996409;28;20033;-82
2021/07/31 02:01:23;;;;;;;3.60;0.90;;;17.00;78.50;;;;;;5016227;28;20053;-82
2021/07/31 02:03:49;;;;;;;2.28;1.17;;;16.90;78.60;;;;;;5007451;28;20088;-81
2021/07/31 02:06:14;;;;;;;4.20;1.63;;;16.90;78.80;;;;;;5019515;28;20655;-82
2021/07/31 02:08:41;;;;;;;2.85;0.75;;;16.90;78.50;;;;;;4997470;28;20022;-83
2021/07/31 02:11:06;;;;;;;3.58;1.05;;;17.00;78.80;;;;;;4999681;28;20128;-83
2021/07/31 02:13:32;;;;;;;5.85;1.50;;;16.90;79.00;;;;;;4993379;28;20116;-82
2021/07/31 02:15:57;;;;;;;3.63;0.77;;;16.90;79.00;;;;;;4993507;28;20079;-82
2021/07/31 02:18:23;;;;;;;8.82;1.42;;;16.90;79.20;;;;;;5006122;28;20032;-82
2021/07/31 02:20:48;;;;;;;3.33;0.88;;;16.90;79.40;;;;;;4998578;28;20464;-83
2021/07/31 02:23:14;;;;;;;7.10;1.17;;;16.90;79.40;;;;;;5007473;28;20048;-82
2021/07/31 02:25:39;;;;;;;3.60;1.05;;;17.00;79.30;;;;;;4991725;28;20079;-82
2021/07/31 02:28:05;;;;;;;5.85;1.50;;;17.00;79.60;;;;;;4990689;28;20026;-83
2021/07/31 02:30:31;;;;;;;8.57;1.77;;;17.00;79.40;;;;;;4992280;28;20428;-82
2021/07/31 02:32:56;;;;;;;4.05;1.30;;;17.00;79.60;;;;;;5007620;28;20025;-83
2021/07/31 02:35:22;;;;;;;3.42;0.95;;;16.90;79.40;;;;;;4992792;28;20045;-82
2021/07/31 02:37:47;;;;;;;6.45;1.67;;;17.00;79.50;;;;;;5007053;28;20088;-82
2021/07/31 02:40:13;;;;;;;5.60;1.55;;;17.00;79.90;;;;;;5016646;28;20080;-83
2021/07/31 02:42:38;;;;;;;6.38;1.38;;;17.00;79.70;;;;;;5022618;28;20030;-82
2021/07/31 02:45:05;;;;;;;5.97;1.55;;;16.90;79.70;;;;;;5012377;28;20166;-82
2021/07/31 02:47:30;;;;;;;2.13;1.23;;;16.90;80.10;;;;;;4993904;28;20100;-82
2021/07/31 02:49:56;;;;;;;5.28;1.80;;;16.80;80.00;;;;;;4993157;28;20037;-83
2021/07/31 02:52:22;;;;;;;5.90;1.77;;;16.70;80.00;;;;;;5018330;28;20113;-83
2021/07/31 02:54:48;;;;;;;3.08;1.02;;;16.90;81.00;;;;;;5001982;28;20073;-83
2021/07/31 02:57:14;;;;;;;4.20;1.25;;;16.90;80.30;;;;;;5008813;28;20037;-83
2021/07/31 02:59:39;;;;;;;4.65;1.25;;;16.80;80.30;;;;;;5007456;28;20036;-83
2021/07/31 03:02:05;;;;;;;4.85;1.48;;;16.70;80.70;;;;;;4991425;28;20053;-82
2021/07/31 03:04:30;;;;;;;3.17;1.30;;;16.80;80.60;;;;;;5003247;28;20033;-82
2021/07/31 03:06:56;;;;;;;5.05;1.73;;;16.60;80.60;;;;;;4997303;28;20032;-81
2021/07/31 03:09:23;;;;;;;4.43;1.33;;;16.70;80.40;;;;;;5010495;28;20492;-81
2021/07/31 03:11:48;;;;;;;5.80;1.45;;;16.80;80.60;;;;;;4997123;28;20029;-81
2021/07/31 03:14:14;;;;;;;3.83;1.58;;;16.80;80.80;;;;;;4991985;28;20026;-82
2021/07/31 03:16:39;;;;;;;5.55;1.25;;;16.70;80.50;;;;;;4994970;28;20388;-83
2021/07/31 03:19:05;;;;;;;4.72;1.85;;;16.70;80.80;;;;;;5029709;28;20036;-81
2021/07/31 03:21:31;;;;;;;3.33;1.25;;;16.80;81.00;;;;;;5001012;28;20048;-83
2021/07/31 03:23:56;;;;;;;0.90;0.60;;;16.70;80.70;;;;;;4996694;28;20037;-84
2021/07/31 03:26:22;;;;;;;2.78;1.40;;;16.80;80.80;;;;;;5006837;28;20037;-81
2021/07/31 03:28:47;;;;;;;4.35;1.10;;;16.80;81.00;;;;;;4995951;28;20087;-84
2021/07/31 03:31:19;;;;;;;4.63;1.63;;;16.90;81.10;;;;;;5022107;28;20080;-84
2021/07/31 03:33:45;;;;;;;4.97;1.40;;;16.70;81.10;;;;;;5010162;28;20033;-83
2021/07/31 03:36:10;;;;;;;1.40;0.77;;;16.80;81.10;;;;;;5005939;28;20156;-83
2021/07/31 03:38:36;;;;;;;5.72;1.67;;;16.70;81.10;;;;;;4992770;28;20040;-83
2021/07/31 03:41:01;;;;;;;4.45;1.38;;;16.70;81.20;;;;;;4991344;28;20025;-82
2021/07/31 03:43:27;;;;;;;7.53;1.20;;;16.70;80.90;;;;;;4995354;28;20019;-82
2021/07/31 03:45:52;;;;;;;3.63;1.55;;;16.70;81.20;;;;;;4994507;28;20026;-82
2021/07/31 03:48:18;;;;;;;3.38;1.30;;;16.70;81.00;;;;;;5005360;28;20095;-83
2021/07/31 03:50:44;;;;;;;3.70;1.40;;;16.70;81.10;;;;;;5005450;28;20026;-82
2021/07/31 03:53:09;;;;;;;2.25;1.40;;;16.70;80.80;;;;;;4999555;28;20393;-83
2021/07/31 03:55:35;;;;;;;3.53;1.50;;;16.80;81.10;;;;;;4997014;28;20024;-82
2021/07/31 03:58:01;;;;;;;5.25;1.42;;;16.70;81.00;;;;;;4995932;28;20101;-84
2021/07/31 04:00:27;;;;;;;2.28;1.20;;;16.70;81.00;;;;;;5008412;28;20036;-82
2021/07/31 04:02:52;;;;;;;3.35;0.90;;;16.70;81.00;;;;;;4994533;28;20146;-82
2021/07/31 04:05:18;;;;;;;5.10;1.73;;;16.70;81.10;;;;;;5002458;28;20042;-83
2021/07/31 04:07:43;;;;;;;3.58;1.42;;;16.70;81.10;;;;;;5003135;28;20060;-83
2021/07/31 04:10:10;;;;;;;5.07;1.42;;;16.70;81.20;;;;;;5000045;28;20531;-83
2021/07/31 04:12:35;;;;;;;2.90;1.05;;;16.60;81.40;;;;;;4999128;28;20091;-81
2021/07/31 04:15:01;;;;;;;5.70;1.40;;;16.70;81.30;;;;;;5001515;28;20041;-81
2021/07/31 04:17:27;;;;;;;2.92;0.98;;;16.70;81.40;;;;;;4997808;28;20064;-81
2021/07/31 04:19:53;;;;;;;9.27;2.25;;;16.80;81.50;;;;;;5003007;28;20497;-82
2021/07/31 04:22:19;;;;;;;5.43;1.67;;;16.60;81.40;;;;;;5000268;28;20087;-82
2021/07/31 04:24:44;;;;;;;2.35;1.23;;;16.50;81.50;;;;;;4999379;28;20113;-82
2021/07/31 04:27:10;;;;;;;4.07;1.70;;;16.60;81.80;;;;;;4995845;28;20076;-82
2021/07/31 04:29:35;;;;;;;6.05;1.63;;;16.60;81.80;;;;;;5011779;28;20041;-82
2021/07/31 04:32:01;;;;;;;2.92;1.17;;;16.50;82.00;;;;;;4999778;28;20481;-81
2021/07/31 04:34:29;;;;;;;3.17;1.50;;;16.50;82.00;;;;;;5006674;28;20244;-81
2021/07/31 04:36:55;;;;;;;7.50;1.08;;;16.50;82.30;;;;;;4994200;28;20040;-82
2021/07/31 04:39:21;;;;;;;1.92;1.13;;;16.40;82.40;;;;;;5005261;28;20061;-82
2021/07/31 04:41:46;;;;;;;1.55;1.35;;;16.50;82.50;;;;;;4992329;28;20087;-81
2021/07/31 04:44:12;;;;;;;3.55;1.77;;;16.50;82.60;;;;;;5004212;28;20056;-83
2021/07/31 04:46:38;;;;;;;3.80;1.27;;;16.60;82.30;;;;;;4999595;28;20041;-82
2021/07/31 04:49:03;;;;;;;4.00;1.30;;;16.60;82.40;;;;;;4995070;28;20033;-82
2021/07/31 04:51:29;;;;;;;1.75;0.80;;;16.60;82.70;;;;;;4995752;28;20026;-82
2021/07/31 04:53:54;;;;;;;2.08;0.98;;;16.60;82.50;;;;;;4999480;28;20052;-83
2021/07/31 04:56:20;;;;;;;3.85;1.60;;;16.60;82.60;;;;;;4996997;28;20393;-83
2021/07/31 04:58:45;;;;;;;2.58;1.25;;;16.60;82.70;;;;;;5002947;28;20401;-82
2021/07/31 05:01:12;;;;;;;2.42;1.48;;;16.60;82.70;;;;;;5011143;28;20164;-83
2021/07/31 05:03:37;;;;;;;6.57;1.50;;;16.70;82.80;;;;;;4996503;28;20116;-82
2021/07/31 05:06:06;;;;;;;2.90;1.40;;;16.60;83.20;;;;;;4993581;28;20152;-82
2021/07/31 05:08:31;;;;;;;3.72;1.38;;;16.70;82.80;;;;;;5013982;28;20022;-82
2021/07/31 05:10:57;;;;;;;11.90;1.58;;;16.70;82.90;;;;;;4999401;28;20041;-82
2021/07/31 05:13:23;;;;;;;5.63;1.55;;;16.70;82.90;;;;;;5008007;28;20043;-82
2021/07/31 05:15:48;;;;;;;3.92;1.50;;;16.70;82.90;;;;;;5005909;28;20057;-82
2021/07/31 05:18:14;;;;;;;1.17;1.00;;;16.70;82.80;;;;;;5006554;28;20033;-82
2021/07/31 05:20:41;;;;;;;4.32;1.10;;;16.80;83.10;;;;;;5009905;28;20500;-82
2021/07/31 05:23:07;;;;;;;4.15;1.60;;;16.80;82.70;;;;;;4993756;28;20124;-82
2021/07/31 05:25:32;;;;;;;2.35;1.80;;;16.80;82.70;;;;;;4996978;28;20108;-82
2021/07/31 05:27:58;;;;;;;4.45;1.75;;;16.80;82.90;;;;;;4994930;28;20037;-83
2021/07/31 05:30:23;;;;;;;9.38;1.30;;;16.80;82.90;;;;;;4999521;28;20029;-81
2021/07/31 05:32:49;;;;;;;4.82;1.52;;;16.90;83.10;;;;;;4998414;28;20040;-82
2021/07/31 05:35:15;;;;;;;3.35;1.58;;;17.00;83.30;;;;;;4995211;28;20025;-82
2021/07/31 05:37:40;;;;;;;2.42;1.13;;;16.90;83.10;;;;;;5011891;28;20025;-83
2021/07/31 05:40:06;;;;;;;3.00;1.40;;;17.10;83.30;;;;;;4991542;28;20096;-82
2021/07/31 05:42:32;;;;;;;3.40;1.23;;;16.90;83.20;;;;;;5001013;28;20041;-84
2021/07/31 05:44:58;;;;;;;6.93;1.40;;;17.00;83.30;;;;;;5004248;28;20025;-84
2021/07/31 05:47:25;;;;;;;7.47;2.00;;;17.10;83.10;;;;;;4993922;28;20037;-84
2021/07/31 05:49:54;;;;;;;3.35;1.48;;;17.10;83.20;;;;;;5009065;28;20040;-83
2021/07/31 05:52:24;;;;;;;2.17;1.10;;;17.20;83.20;;;;;;5022278;28;20030;-84
2021/07/31 05:54:49;;;;;;;1.35;1.23;;;17.10;83.10;;;;;;5001185;28;20033;-83
2021/07/31 05:57:15;;;;;;;1.88;1.30;;;17.20;83.20;;;;;;5005362;28;20424;-83
2021/07/31 05:59:41;;;;;;;3.80;1.80;;;17.20;83.20;;;;;;4994077;28;20041;-84
2021/07/31 06:02:06;;;;;;;2.67;1.33;;;17.20;83.20;;;;;;5008286;28;20037;-84
2021/07/31 06:04:32;;;;;;;4.30;1.60;;;17.20;83.20;;;;;;4993490;28;20038;-84
2021/07/31 06:07:00;;;;;;;1.25;0.95;;;17.10;83.10;;;;;;5016290;28;20025;-83
2021/07/31 06:09:26;;;;;;;6.78;1.67;;;17.10;83.30;;;;;;5012781;28;20034;-81
2021/07/31 06:11:51;;;;;;;3.72;1.60;;;17.20;83.20;;;;;;5009746;28;20371;-85
2021/07/31 06:14:17;;;;;;;6.07;1.67;;;17.30;83.20;;;;;;4994104;28;20045;-84
2021/07/31 06:16:42;;;;;;;2.72;0.95;;;17.30;83.00;;;;;;4998415;28;20035;-84
2021/07/31 06:19:08;;;;;;;3.80;1.55;;;17.30;83.10;;;;;;5012626;28;20048;-84
2021/07/31 06:21:33;;;;;;;3.33;1.40;;;17.40;82.80;;;;;;4994703;28;20206;-82
2021/07/31 06:23:59;;;;;;;2.50;1.27;;;17.40;82.90;;;;;;4993389;28;20392;-84
2021/07/31 06:26:24;;;;;;;2.20;1.15;;;17.50;83.20;;;;;;5004343;28;20026;-85
2021/07/31 06:28:50;;;;;;;2.45;0.90;;;17.60;82.60;;;;;;5008427;28;20424;-85
2021/07/31 06:31:15;;;;;;;1.65;1.55;;;17.50;82.50;;;;;;5001775;28;20024;-83
2021/07/31 06:33:41;;;;;;;4.03;1.42;;;17.60;82.40;;;;;;4993446;28;20112;-85
2021/07/31 06:36:06;;;;;;;5.78;1.02;;;17.50;82.30;;;;;;4998840;28;20032;-83
2021/07/31 06:38:32;;;;;;;7.50;1.80;;;17.60;82.60;;;;;;4994883;28;20087;-85
2021/07/31 06:40:57;;;;;;;4.22;1.30;;;17.70;82.20;;;;;;4994665;28;20116;-84
2021/07/31 06:43:23;;;;;;;3.70;1.70;;;17.80;82.40;;;;;;4998147;28;20485;-84
2021/07/31 06:45:48;;;;;;;1.95;1.35;;;18.00;82.50;;;;;;5006969;28;20065;-84
2021/07/31 06:48:14;;;;;;;1.60;0.93;;;18.10;81.80;;;;;;4988605;28;20124;-84
2021/07/31 06:50:39;;;;;;;2.35;1.38;;;18.20;81.30;;;;;;4993111;28;20026;-84
2021/07/31 06:53:05;;;;;;;4.40;1.77;;;18.20;81.30;;;;;;5011100;28;20083;-81
2021/07/31 06:55:30;;;;;;;2.72;1.83;;;18.10;81.50;;;;;;4997136;28;20025;-83
2021/07/31 06:57:56;;;;;;;2.03;1.30;;;18.40;82.20;;;;;;5010358;28;20051;-84
2021/07/31 07:00:21;;;;;;;1.80;1.48;;;18.50;81.20;;;;;;4993620;28;20041;-84
2021/07/31 07:02:47;;;;;;;2.15;1.20;;;18.40;81.00;;;;;;5000602;28;20100;-84
2021/07/31 07:05:13;;;;;;;2.45;1.33;;;18.50;81.40;;;;;;4993519;28;20033;-84
2021/07/31 07:07:39;;;;;;;2.47;0.70;;;18.50;80.70;;;;;;5013790;28;20038;-85
2021/07/31 07:10:05;;;;;;;4.30;1.27;;;18.50;80.70;;;;;;4990319;28;20040;-82
2021/07/31 07:12:31;;;;;;;3.17;1.40;;;18.40;81.20;;;;;;5006281;28;20104;-84
2021/07/31 07:14:56;;;;;;;5.38;1.60;;;18.60;81.10;;;;;;4991519;28;20117;-82
2021/07/31 07:17:22;;;;;;;7.20;1.48;;;18.80;81.10;;;;;;4993788;28;20051;-85
2021/07/31 07:19:47;;;;;;;2.72;1.00;;;18.80;80.20;;;;;;4992282;28;20041;-84
2021/07/31 07:22:13;;;;;;;1.17;1.08;;;18.90;80.50;;;;;;4987735;28;20038;-84
2021/07/31 07:24:38;;;;;;;1.90;1.05;;;18.90;79.30;;;;;;5006611;28;20072;-85
2021/07/31 07:27:04;;;;;;;6.57;1.15;;;19.10;79.30;;;;;;4991049;28;20068;-86
2021/07/31 07:29:30;;;;;;;3.05;1.75;;;19.10;79.00;;;;;;4987341;28;20064;-85
2021/07/31 07:31:55;;;;;;;3.63;1.40;;;19.10;79.00;;;;;;5000849;28;20057;-84
2021/07/31 07:34:21;;;;;;;2.05;1.35;;;19.10;79.40;;;;;;4974721;28;20107;-84
2021/07/31 07:36:46;;;;;;;3.85;1.65;;;19.10;79.20;;;;;;5006368;28;20079;-85
2021/07/31 07:39:12;;;;;;;3.13;1.05;;;19.30;78.70;;;;;;5013001;28;20034;-85
2021/07/31 07:41:37;;;;;;;1.90;1.10;;;19.40;78.30;;;;;;5007438;28;20030;-83
2021/07/31 07:44:03;;;;;;;1.48;1.10;;;19.60;77.90;;;;;;4994987;28;20034;-85
2021/07/31 07:46:28;;;;;;;2.58;1.10;;;19.70;77.40;;;;;;5003764;28;20743;-84
2021/07/31 07:48:54;;;;;;;4.60;1.48;;;19.80;77.30;;;;;;4996549;28;20107;-85
2021/07/31 07:51:20;;;;;;;1.27;0.90;;;20.10;77.50;;;;;;4993217;28;20272;-84
2021/07/31 07:53:45;;;;;;;2.33;1.30;;;20.20;76.20;;;;;;5000046;28;20026;-81
2021/07/31 07:56:11;;;;;;;2.47;1.30;;;20.20;75.60;;;;;;5010224;28;20029;-83
2021/07/31 07:58:36;;;;;;;1.77;0.80;;;20.30;75.90;;;;;;5009468;28;20026;-84
2021/07/31 08:01:04;;;;;;;2.58;1.13;;;20.40;75.50;;;;;;4991942;28;20045;-83
2021/07/31 08:03:30;;;;;;;5.93;1.50;;;20.30;75.80;;;;;;5006220;28;20052;-83
2021/07/31 08:05:55;;;;;;;3.13;2.03;;;20.10;76.00;;;;;;4994070;28;20516;-82
2021/07/31 08:08:21;;;;;;;3.25;1.25;;;20.30;75.30;;;;;;4997290;28;20072;-82
2021/07/31 08:10:46;;;;;;;1.75;1.10;;;20.80;74.90;;;;;;5006851;28;20103;-83
2021/07/31 08:13:12;;;;;;;5.93;1.65;;;21.10;74.30;;;;;;4993880;28;20034;-83
2021/07/31 08:15:37;;;;;;;4.10;1.35;;;21.40;74.60;;;;;;5007999;28;20030;-83
2021/07/31 08:18:03;;;;;;;2.50;1.40;;;21.60;73.40;;;;;;4996962;28;20105;-81
2021/07/31 08:20:28;;;;;;;3.00;1.88;;;21.50;72.70;;;;;;5005383;28;20052;-83
2021/07/31 08:22:54;;;;;;;3.83;0.75;;;21.70;72.70;;;;;;4992909;28;20401;-83
2021/07/31 08:25:20;;;;;;;3.40;1.20;;;22.00;71.30;;;;;;5009266;28;20055;-83
2021/07/31 08:27:45;;;;;;;3.08;1.33;;;22.00;71.00;;;;;;4993069;28;20022;-82
2021/07/31 08:30:11;;;;;;;2.70;1.17;;;21.50;71.20;;;;;;5009583;28;20071;-82
2021/07/31 08:32:36;;;;;;;3.33;1.45;;;21.70;71.10;;;;;;4999108;28;20402;-82
2021/07/31 08:35:02;;;;;;;2.53;1.15;;;21.60;70.70;;;;;;4987186;28;20032;-82
2021/07/31 08:37:28;;;;;;;5.07;1.50;;;21.80;71.20;;;;;;4998561;28;20061;-81
2021/07/31 08:39:54;;;;;;;1.67;1.23;;;21.60;71.20;;;;;;4989415;28;20112;-83
2021/07/31 08:42:19;;;;;;;3.38;1.13;;;21.30;70.70;;;;;;4999557;28;20052;-82
2021/07/31 08:44:45;;;;;;;2.78;1.38;;;21.60;71.00;;;;;;5000998;28;20451;-83
2021/07/31 08:47:11;;;;;;;4.47;1.30;;;21.80;70.90;;;;;;4995113;28;20127;-82
2021/07/31 08:49:37;;;;;;;1.98;1.35;;;22.00;71.20;;;;;;4996751;28;20044;-83
2021/07/31 08:52:04;;;;;;;4.90;1.38;;;21.80;70.00;;;;;;5003378;28;20037;-84
2021/07/31 08:54:29;;;;;;;1.98;1.33;;;21.40;71.00;;;;;;4995086;28;20038;-83
2021/07/31 08:56:55;;;;;;;3.65;1.33;;;21.60;72.00;;;;;;5009988;28;20460;-82
2021/07/31 08:59:27;;;;;;;3.47;1.17;;;21.80;70.30;;;;;;5010860;28;20404;-82
2021/07/31 09:01:53;;;;;;;3.67;1.33;;;22.00;69.90;;;;;;4975393;28;20377;-83
2021/07/31 09:04:19;;;;;;;5.40;1.42;;;22.30;69.70;;;;;;4989334;28;20083;-83
2021/07/31 09:06:45;;;;;;;5.28;1.48;;;22.30;69.40;;;;;;4985210;28;20037;-84
2021/07/31 09:09:11;;;;;;;2.85;1.15;;;22.30;69.10;;;;;;4984684;28;20540;-81
2021/07/31 09:11:53;;;;;;;4.32;1.10;;;22.10;69.60;;;;;;4987702;28;20029;-84
2021/07/31 09:14:19;;;;;;;6.20;1.48;;;21.80;69.60;;;;;;4989720;28;20048;-82
2021/07/31 09:16:45;;;;;;;3.78;1.60;;;21.60;70.50;;;;;;5011751;28;20034;-82
2021/07/31 09:19:12;;;;;;;3.67;1.25;;;21.90;70.30;;;;;;4996665;28;20044;-81
2021/07/31 09:21:40;;;;;;;2.38;1.20;;;22.00;70.00;;;;;;5009992;28;20100;-84
2021/07/31 09:24:26;;;;;;;3.08;0.88;;;22.30;69.10;;;;;;4990561;28;20044;-83
2021/07/31 09:26:53;;;;;;;4.47;1.50;;;22.20;69.40;;;;;;5000556;28;20493;-82
2021/07/31 09:29:31;;;;;;;2.67;1.20;;;21.90;69.70;;;;;;4996995;28;20124;-83
2021/07/31 09:32:02;;;;;;;1.92;1.10;;;22.00;69.30;;;;;;4991211;28;20060;-83
2021/07/31 09:34:35;;;;;;;2.75;1.58;;;22.20;69.00;;;;;;5004619;28;20060;-82
2021/07/31 09:37:18;;;;;;;2.92;1.40;;;22.20;69.20;;;;;;5012266;28;20312;-83
2021/07/31 09:39:57;;;;;;;2.80;1.05;;;22.00;69.20;;;;;;4979475;28;20505;-83
2021/07/31 09:42:31;;;;;;;7.25;1.70;;;22.00;69.60;;;;;;4994338;28;20485;-84
2021/07/31 09:44:58;;;;;;;3.97;1.15;;;21.80;69.70;;;;;;5021805;28;20381;-83
2021/07/31 09:47:23;;;;;;;1.75;0.98;;;21.90;70.00;;;;;;5009781;28;20116;-84
2021/07/31 09:49:50;;;;;;;2.72;1.48;;;22.10;69.20;;;;;;4995807;28;20548;-83
2021/07/31 09:52:19;;;;;;;2.45;1.30;;;22.40;70.90;;;;;;5008442;28;20052;-85
2021/07/31 09:54:46;;;;;;;7.10;1.27;;;22.50;68.50;;;;;;4986845;28;20109;-84
2021/07/31 09:57:12;;;;;;;2.42;1.48;;;22.60;69.30;;;;;;5009879;28;20369;-85
2021/07/31 09:59:42;;;;;;;2.25;1.33;;;22.70;68.20;;;;;;5007694;28;20071;-84
2021/07/31 10:02:08;;;;;;;3.03;1.63;;;22.70;67.80;;;;;;4986438;28;20041;-84
2021/07/31 10:04:33;;;;;;;11.27;1.63;;;22.20;68.80;;;;;;4992311;28;20036;-84
2021/07/31 10:07:02;;;;;;;2.97;1.35;;;22.30;68.70;;;;;;4994747;28;20033;-85
2021/07/31 10:09:28;;;;;;;6.18;1.38;;;22.40;69.30;;;;;;5008736;28;20124;-83
2021/07/31 10:11:53;;;;;;;2.65;1.33;;;22.70;68.30;;;;;;4993436;28;20129;-84
2021/07/31 10:14:19;;;;;;;2.95;1.38;;;22.90;68.30;;;;;;5008050;28;20360;-84
2021/07/31 10:16:46;;;;;;;1.75;0.98;;;22.70;67.80;;;;;;5001694;28;20489;-86
2021/07/31 10:19:12;;;;;;;4.10;1.42;;;22.50;68.20;;;;;;4987278;28;20049;-84
2021/07/31 10:21:52;;;;;;;4.60;1.40;;;23.00;68.70;;;;;;4999422;28;20022;-84
2021/07/31 10:24:18;;;;;;;0.80;0.80;;;22.90;68.30;;;;;;4989273;28;20037;-84
2021/07/31 10:27:15;;;;;;;3.75;1.30;;;23.00;67.40;;;;;;4999293;28;20044;-84
2021/07/31 10:29:43;;;;;;;3.65;1.30;;;23.20;68.20;;;;;;5023156;28;20030;-85
2021/07/31 10:32:38;;;;;;;3.67;1.60;;;23.10;67.60;;;;;;5015083;28;20037;-85
2021/07/31 10:35:08;;;;;;;2.65;1.60;;;23.20;68.60;;;;;;4993341;28;20033;-85
2021/07/31 10:37:38;;;;;;;3.17;1.40;;;23.10;68.50;;;;;;4998901;28;20040;-85
2021/07/31 10:40:08;;;;;;;5.68;1.50;;;23.30;68.20;;;;;;5005135;28;20558;-85
2021/07/31 10:42:52;;;;;;;3.70;1.50;;;23.50;67.40;;;;;;5010329;28;20548;-87
2021/07/31 10:45:17;;;;;;;1.55;1.20;;;23.90;66.90;;;;;;5017302;28;20034;-86
2021/07/31 10:47:47;;;;;;;1.80;1.08;;;23.70;66.10;;;;;;5009759;28;20049;-84
2021/07/31 10:50:27;;;;;;;1.73;1.52;;;24.00;65.90;;;;;;4995060;28;20041;-86
2021/07/31 10:53:03;;;;;;;3.00;1.30;;;24.10;65.60;;;;;;5009591;28;20060;-85
2021/07/31 10:55:37;;;;;;;2.45;1.20;;;24.30;65.10;;;;;;4988706;28;20520;-86
2021/07/31 10:58:09;;;;;;;2.28;1.13;;;24.20;64.20;;;;;;5008645;28;20029;-86
2021/07/31 11:01:22;;;;;;;3.80;1.35;;;24.70;65.60;;;;;;5008179;28;20058;-86
2021/07/31 11:03:48;;;;;;;5.80;1.08;;;24.50;63.90;;;;;;4978266;28;20164;-84
2021/07/31 11:06:14;;;;;;;1.88;1.52;;;24.70;63.60;;;;;;5000885;28;20113;-87
2021/07/31 11:08:45;;;;;;;3.15;1.10;;;24.60;63.40;;;;;;5000122;28;20034;-88
2021/07/31 11:11:13;;;;;;;1.95;0.90;;;24.70;63.10;;;;;;5019048;28;20040;-87
2021/07/31 11:13:39;;;;;;;1.63;0.90;;;24.60;63.20;;;;;;5009500;28;20044;-88
2021/07/31 11:16:07;;;;;;;1.42;1.08;;;24.90;63.10;;;;;;5013876;28;20477;-86
2021/07/31 11:18:35;;;;;;;1.92;1.00;;;24.60;62.60;;;;;;5009505;28;20223;-86
2021/07/31 11:21:17;;;;;;;4.00;1.30;;;24.40;62.90;;;;;;5013239;28;20021;-86
2021/07/31 11:24:05;;;;;;;1.50;1.02;;;24.70;64.50;;;;;;4976212;28;20092;-86
2021/07/31 11:26:50;;;;;;;1.55;0.90;;;24.90;63.40;;;;;;4993438;28;20078;-86
2021/07/31 11:29:23;;;;;;;1.65;1.17;;;24.20;62.00;;;;;;4993655;28;20038;-87
2021/07/31 11:32:14;;;;;;;3.35;0.90;;;24.40;62.30;;;;;;5009436;28;20030;-88
2021/07/31 11:34:47;;;;;;;2.58;1.25;;;24.30;61.60;;;;;;4994215;28;20491;-87
2021/07/31 11:37:14;;;;;;;1.38;1.13;;;24.20;61.90;;;;;;4645736;28;10000283;-88
2021/07/31 11:39:40;;;;;;;7.07;0.77;;;24.20;61.50;;;;;;4992363;28;20401;-88
2021/07/31 11:42:06;;;;;;;1.85;1.05;;;24.30;62.10;;;;;;4992855;28;20084;-88
2021/07/31 11:44:36;;;;;;;1.10;1.00;;;24.40;62.30;;;;;;4997425;28;20061;-88
2021/07/31 11:47:02;;;;;;;2.63;1.30;;;24.60;62.20;;;;;;4993884;28;20033;-88
2021/07/31 11:49:34;;;;;;;2.55;1.02;;;24.50;61.90;;;;;;5022373;28;20037;-87
2021/07/31 11:52:03;;;;;;;6.93;2.20;;;24.90;62.30;;;;;;4994242;28;20389;-86
2021/07/31 11:54:29;;;;;;;3.15;1.10;;;25.10;61.90;;;;;;4990465;28;20409;-87
2021/07/31 11:56:56;;;;;;;1.88;0.70;;;25.40;62.00;;;;;;4994853;28;20513;-87
2021/07/31 11:59:28;;;;;;;2.95;1.13;;;25.60;59.60;;;;;;4995571;28;20764;-86
2021/07/31 12:01:57;;;;;;;2.22;1.63;;;25.60;60.80;;;;;;4993050;28;20110;-87
2021/07/31 12:04:48;;;;;;;2.53;0.93;;;25.60;61.00;;;;;;4999813;28;20087;-84
2021/07/31 12:07:17;;;;;;;2.70;1.20;;;25.60;60.10;;;;;;4995184;28;20029;-85
2021/07/31 12:09:44;;;;;;;2.60;1.25;;;25.90;60.50;;;;;;4997981;28;20789;-85
2021/07/31 12:12:23;;;;;;;2.28;0.73;;;25.90;59.60;;;;;;4995908;28;20464;-84
2021/07/31 12:15:07;;;;;;;5.60;1.10;;;25.70;60.40;;;;;;4996683;28;20449;-84
2021/07/31 12:17:32;;;;;;;2.47;0.98;;;25.70;59.90;;;;;;5013315;28;20508;-84
2021/07/31 12:19:59;;;;;;;1.95;1.15;;;25.90;60.30;;;;;;5005472;28;20037;-85
2021/07/31 12:22:28;;;;;;;3.50;1.00;;;26.00;59.70;;;;;;5021058;28;20443;-84
2021/07/31 12:25:08;;;;;;;1.10;1.00;;;25.90;59.70;;;;;;5018583;28;20033;-85
2021/07/31 12:28:05;;;;;;;3.00;1.30;;;25.90;59.30;;;;;;5012891;28;20033;-84
2021/07/31 12:30:39;;;;;;;2.05;1.00;;;26.00;59.50;;;;;;4995352;28;20037;-84
2021/07/31 12:33:05;;;;;;;4.18;1.15;;;25.80;59.10;;;;;;5035686;28;20533;-83
2021/07/31 12:35:37;;;;;;;3.58;1.20;;;26.10;59.60;;;;;;5030212;28;20037;-85
2021/07/31 12:38:08;;;;;;;1.75;1.20;;;26.30;58.90;;;;;;5031869;28;20102;-84
2021/07/31 12:40:33;;;;;;;1.17;0.98;;;26.00;58.70;;;;;;5011750;28;20372;-84
2021/07/31 12:42:59;;;;;;;1.38;0.93;;;26.20;58.70;;;;;;4991928;28;20133;-84
2021/07/31 12:45:28;;;;;;;3.33;1.05;;;26.20;59.20;;;;;;5012556;28;20053;-84
2021/07/31 12:47:54;;;;;;;2.05;1.20;;;26.00;58.70;;;;;;4991349;28;20105;-84